Time;durP1;ratioP1;P1;durP2;ratioP2;P2;SDS_P1;SDS_P2;PMS_P1;PMS_P2;Temp;Humidity;BMP_temperature;BMP_pressure;BME280_temperature;BME280_humidity;BME280_pressure;Samples;Min_cycle;Max_cycle;Signal;HPM_P1;HPM_P2
2022/09/14 00:01:42;;;;;;;2.80;1.80;;;;;;;-144.47;100.00;61586.06;5003121;28;20409;-85
2022/09/14 00:04:14;;;;;;;2.75;1.50;;;;;;;-144.47;100.00;61586.06;5005766;28;20450;-84
2022/09/14 00:06:40;;;;;;;3.10;1.80;;;;;;;-144.47;100.00;61586.06;4985991;28;20420;-85
2022/09/14 00:09:07;;;;;;;3.40;1.70;;;;;;;-144.47;100.00;61586.06;5005618;28;20468;-84
2022/09/14 00:11:34;;;;;;;2.63;1.70;;;;;;;-144.47;100.00;61586.06;5002962;28;20983;-85
2022/09/14 00:14:01;;;;;;;2.43;1.67;;;;;;;-144.47;100.00;61586.06;5006565;28;20400;-84
2022/09/14 00:16:29;;;;;;;3.53;1.67;;;;;;;-144.47;100.00;61586.06;4996242;28;20416;-84
2022/09/14 00:18:59;;;;;;;2.78;1.70;;;;;;;-144.47;100.00;61586.06;5013249;28;20805;-84
2022/09/14 00:21:26;;;;;;;3.70;1.80;;;;;;;-144.47;100.00;61586.06;4988979;28;20988;-84
2022/09/14 00:23:52;;;;;;;1.75;1.50;;;;;;;-144.47;100.00;61586.06;5005141;28;20931;-84
2022/09/14 00:26:20;;;;;;;4.80;1.80;;;;;;;-144.47;100.00;61586.06;4986242;28;20514;-83
2022/09/14 00:28:54;;;;;;;1.90;1.40;;;;;;;-144.47;100.00;61586.06;5009158;28;20425;-83
2022/09/14 00:31:21;;;;;;;2.60;1.60;;;;;;;-144.47;100.00;61586.06;5010690;28;20415;-82
2022/09/14 00:33:48;;;;;;;3.85;1.85;;;;;;;-144.47;100.00;61586.06;5015262;28;20402;-84
2022/09/14 00:36:22;;;;;;;3.70;1.70;;;;;;;-144.47;100.00;61586.06;5021569;28;20409;-83
2022/09/14 00:38:49;;;;;;;3.80;1.92;;;;;;;-144.47;100.00;61586.06;5013199;28;20407;-84
2022/09/14 00:41:17;;;;;;;2.95;1.50;;;;;;;-144.47;100.00;61586.06;5022335;28;20446;-84
2022/09/14 00:43:57;;;;;;;2.15;1.80;;;;;;;-144.47;100.00;61586.06;5003299;28;20397;-84
2022/09/14 00:46:25;;;;;;;3.87;1.60;;;;;;;-144.47;100.00;61586.06;4987431;28;20473;-84
2022/09/14 00:48:51;;;;;;;3.28;1.92;;;;;;;-144.47;100.00;61586.06;5002981;28;20495;-83
2022/09/14 00:51:19;;;;;;;3.78;1.73;;;;;;;-144.47;100.00;61586.06;5006682;28;20399;-83
2022/09/14 00:53:45;;;;;;;3.08;1.50;;;;;;;-144.47;100.00;61586.06;5003233;28;20431;-83
2022/09/14 00:56:13;;;;;;;3.37;1.70;;;;;;;-144.47;100.00;61586.06;5003824;28;20873;-84
2022/09/14 00:58:39;;;;;;;3.72;1.50;;;;;;;-144.47;100.00;61586.06;5007444;28;20528;-85
2022/09/14 01:01:05;;;;;;;2.03;1.80;;;;;;;-144.47;100.00;61586.06;4993089;28;20403;-84
2022/09/14 01:03:30;;;;;;;5.53;1.90;;;;;;;-144.47;100.00;61586.06;5001087;28;20766;-86
2022/09/14 01:06:08;;;;;;;3.33;1.90;;;;;;;-144.47;100.00;61586.06;5001642;28;20403;-86
2022/09/14 01:08:42;;;;;;;3.22;1.70;;;;;;;-144.47;100.00;61586.06;5008924;28;20425;-87
2022/09/14 01:11:10;;;;;;;3.22;1.90;;;;;;;-144.47;100.00;61586.06;5004289;28;20407;-87
2022/09/14 01:13:58;;;;;;;2.72;1.65;;;;;;;-144.47;100.00;61586.06;5001550;28;20477;-85
2022/09/14 01:16:40;;;;;;;2.90;1.90;;;;;;;-144.47;100.00;61586.06;5001636;28;20790;-83
2022/09/14 01:19:21;;;;;;;3.92;1.60;;;;;;;-144.47;100.00;61586.06;5011233;28;20407;-85
2022/09/14 01:21:49;;;;;;;3.22;2.00;;;;;;;-144.47;100.00;61586.06;5003965;28;20909;-84
2022/09/14 01:25:05;;;;;;;5.07;1.80;;;;;;;-144.47;100.00;61586.06;5002700;28;20419;-84
2022/09/14 01:27:40;;;;;;;3.15;1.75;;;;;;;-144.47;100.00;61586.06;5008150;28;20412;-85
2022/09/14 01:30:06;;;;;;;4.05;1.80;;;;;;;-144.47;100.00;61586.06;5002256;28;20821;-87
2022/09/14 01:33:01;;;;;;;2.27;1.80;;;;;;;-144.47;100.00;61586.06;5004285;28;20473;-87
2022/09/14 01:35:42;;;;;;;3.00;1.83;;;;;;;-144.47;100.00;61586.06;5004822;28;20497;-88
2022/09/14 01:38:15;;;;;;;4.63;1.80;;;;;;;-144.47;100.00;61586.06;5003021;28;20410;-85
2022/09/14 01:40:49;;;;;;;2.15;1.77;;;;;;;-144.47;100.00;61586.06;5003713;28;20892;-84
2022/09/14 01:46:30;;;;;;;3.88;2.25;;;;;;;-144.47;100.00;61586.06;5017605;28;20435;-79
2022/09/14 01:49:09;;;;;;;3.60;2.08;;;;;;;-144.47;100.00;61586.06;5022786;28;20505;-81
2022/09/14 01:51:46;;;;;;;2.90;1.67;;;;;;;-144.47;100.00;61586.06;5016485;28;20408;-81
2022/09/14 01:54:12;;;;;;;3.50;1.90;;;;;;;-144.47;100.00;61586.06;5021191;28;20394;-81
2022/09/14 01:56:44;;;;;;;3.57;1.80;;;;;;;-144.47;100.00;61586.06;5019781;28;20403;-81
2022/09/14 01:59:15;;;;;;;2.97;1.90;;;;;;;-144.47;100.00;61586.06;5021598;28;20398;-81
2022/09/14 02:01:47;;;;;;;2.13;1.90;;;;;;;-144.47;100.00;61586.06;5018357;28;20438;-82
2022/09/14 02:04:19;;;;;;;3.10;2.20;;;;;;;-144.47;100.00;61586.06;5036189;28;20488;-81
2022/09/14 02:06:47;;;;;;;3.33;1.85;;;;;;;-144.47;100.00;61586.06;5020249;28;20415;-81
2022/09/14 02:09:17;;;;;;;2.40;1.80;;;;;;;-144.47;100.00;61586.06;5020750;28;20429;-82
2022/09/14 02:11:43;;;;;;;2.03;1.67;;;;;;;-144.47;100.00;61586.06;5020266;28;20414;-81
2022/09/14 02:14:09;;;;;;;2.60;1.73;;;;;;;-144.47;100.00;61586.06;5021399;28;20398;-81
2022/09/14 02:16:34;;;;;;;4.13;1.75;;;;;;;-144.47;100.00;61586.06;5018740;28;20907;-80
2022/09/14 02:19:00;;;;;;;4.88;1.80;;;;;;;-144.47;100.00;61586.06;5022360;28;20414;-81
2022/09/14 02:21:31;;;;;;;3.47;2.03;;;;;;;-144.47;100.00;61586.06;5018654;28;20411;-82
2022/09/14 02:23:58;;;;;;;2.45;1.60;;;;;;;-144.47;100.00;61586.06;5014638;28;20892;-81
2022/09/14 02:26:24;;;;;;;3.90;1.92;;;;;;;-144.47;100.00;61586.06;5021811;28;20390;-81
2022/09/14 02:28:54;;;;;;;2.40;1.90;;;;;;;-144.47;100.00;61586.06;5019279;28;20406;-81
2022/09/14 02:31:29;;;;;;;2.47;1.92;;;;;;;-144.47;100.00;61586.06;5021223;28;20761;-81
2022/09/14 02:34:42;;;;;;;3.58;2.00;;;;;;;-144.47;100.00;61586.06;5019354;28;20903;-81
2022/09/14 02:37:16;;;;;;;5.18;2.22;;;;;;;-144.47;100.00;61586.06;4998807;28;20444;-82
2022/09/14 02:40:10;;;;;;;3.75;2.10;;;;;;;-144.47;100.00;61586.06;5020143;28;20484;-81
2022/09/14 02:42:39;;;;;;;4.60;2.08;;;;;;;-144.47;100.00;61586.06;5016027;28;20399;-81
2022/09/14 02:45:29;;;;;;;3.40;2.03;;;;;;;-144.47;100.00;61586.06;5021221;28;20441;-81
2022/09/14 02:48:15;;;;;;;3.53;2.25;;;;;;;-144.47;100.00;61586.06;5022170;28;20460;-81
2022/09/14 02:50:54;;;;;;;3.53;2.30;;;;;;;-144.47;100.00;61586.06;5014612;28;20404;-81
2022/09/14 02:53:20;;;;;;;5.80;1.97;;;;;;;-144.47;100.00;61586.06;5019639;28;20426;-82
2022/09/14 02:55:54;;;;;;;6.90;2.40;;;;;;;-144.47;100.00;61586.06;5020569;28;20439;-82
2022/09/14 02:58:20;;;;;;;3.20;2.10;;;;;;;-144.47;100.00;61586.06;5020124;28;20410;-82
2022/09/14 03:00:48;;;;;;;2.22;1.70;;;;;;;-144.47;100.00;61586.06;5020373;28;20407;-82
2022/09/14 03:03:16;;;;;;;2.70;1.80;;;;;;;-144.47;100.00;61586.06;5020740;28;20496;-82
2022/09/14 03:05:42;;;;;;;4.85;2.15;;;;;;;-144.47;100.00;61586.06;5019858;28;20427;-81
2022/09/14 03:08:09;;;;;;;3.07;1.83;;;;;;;-144.47;100.00;61586.06;5021032;28;20879;-82
2022/09/14 03:10:35;;;;;;;2.20;1.90;;;;;;;-144.47;100.00;61586.06;5018560;28;20448;-82
2022/09/14 03:13:01;;;;;;;3.17;1.85;;;;;;;-144.47;100.00;61586.06;5021948;28;20410;-82
2022/09/14 03:15:27;;;;;;;2.50;1.97;;;;;;;-144.47;100.00;61586.06;5014241;28;20742;-81
2022/09/14 03:17:53;;;;;;;3.22;1.95;;;;;;;-144.47;100.00;61586.06;5021426;28;20402;-82
2022/09/14 03:20:25;;;;;;;4.27;2.10;;;;;;;-144.47;100.00;61586.06;5019379;28;20456;-80
2022/09/14 03:22:50;;;;;;;2.33;2.00;;;;;;;-144.47;100.00;61586.06;5035937;28;20423;-82
2022/09/14 03:25:18;;;;;;;4.73;2.10;;;;;;;-144.47;100.00;61586.06;5034871;28;20406;-80
2022/09/14 03:27:52;;;;;;;2.65;2.00;;;;;;;-144.47;100.00;61586.06;5001960;28;20431;-80
2022/09/14 03:30:18;;;;;;;3.67;2.17;;;;;;;-144.47;100.00;61586.06;5019698;28;20425;-81
2022/09/14 03:32:44;;;;;;;3.77;1.60;;;;;;;-144.47;100.00;61586.06;5019544;28;20411;-81
2022/09/14 03:35:09;;;;;;;2.53;1.73;;;;;;;-144.47;100.00;61586.06;5020888;28;20418;-82
2022/09/14 03:37:40;;;;;;;4.00;2.15;;;;;;;-144.47;100.00;61586.06;5001201;28;20407;-81
2022/09/14 03:40:07;;;;;;;3.78;1.80;;;;;;;-144.47;100.00;61586.06;5019701;28;20434;-81
2022/09/14 03:42:33;;;;;;;2.93;1.80;;;;;;;-144.47;100.00;61586.06;5018065;28;20399;-81
2022/09/14 03:44:59;;;;;;;2.83;1.77;;;;;;;-144.47;100.00;61586.06;5021636;28;20445;-80
2022/09/14 03:47:25;;;;;;;2.40;1.80;;;;;;;-144.47;100.00;61586.06;5018261;28;20403;-79
2022/09/14 03:49:51;;;;;;;2.88;1.80;;;;;;;-144.47;100.00;61586.06;5020500;28;20434;-81
2022/09/14 03:52:17;;;;;;;4.18;1.98;;;;;;;-144.47;100.00;61586.06;5019687;28;20398;-80
2022/09/14 03:54:42;;;;;;;2.67;1.70;;;;;;;-144.47;100.00;61586.06;5019396;28;20400;-82
2022/09/14 03:57:08;;;;;;;2.20;1.70;;;;;;;-144.47;100.00;61586.06;5020747;28;20430;-81
2022/09/14 03:59:34;;;;;;;2.38;1.77;;;;;;;-144.47;100.00;61586.06;5018235;28;20431;-82
2022/09/14 04:02:00;;;;;;;2.30;1.80;;;;;;;-144.47;100.00;61586.06;5021492;28;21115;-80
2022/09/14 04:04:26;;;;;;;3.20;2.07;;;;;;;-144.47;100.00;61586.06;5018554;28;20411;-81
2022/09/14 04:06:52;;;;;;;4.83;2.20;;;;;;;-144.47;100.00;61586.06;5020904;28;20452;-82
2022/09/14 04:09:18;;;;;;;2.70;1.98;;;;;;;-144.47;100.00;61586.06;5037519;28;20505;-81
2022/09/14 04:11:45;;;;;;;3.28;2.28;;;;;;;-144.47;100.00;61586.06;5038068;28;20911;-81
2022/09/14 04:14:11;;;;;;;2.90;2.00;;;;;;;-144.47;100.00;61586.06;5023783;28;20449;-80
2022/09/14 04:16:38;;;;;;;2.88;2.10;;;;;;;-144.47;100.00;61586.06;5021822;28;20808;-81
2022/09/14 04:19:03;;;;;;;3.13;2.10;;;;;;;-144.47;100.00;61586.06;5024866;28;20894;-80
2022/09/14 04:21:29;;;;;;;4.53;2.27;;;;;;;-144.47;100.00;61586.06;5036677;28;20408;-80
2022/09/14 04:23:56;;;;;;;3.03;2.20;;;;;;;-144.47;100.00;61586.06;5024576;28;20497;-80
2022/09/14 04:26:24;;;;;;;5.68;2.10;;;;;;;-144.47;100.00;61586.06;5021966;28;20407;-81
2022/09/14 04:28:49;;;;;;;3.45;2.30;;;;;;;-144.47;100.00;61586.06;5022991;28;20431;-81
2022/09/14 04:31:15;;;;;;;5.30;2.67;;;;;;;-144.47;100.00;61586.06;5022627;28;20422;-80
2022/09/14 04:33:42;;;;;;;3.08;2.30;;;;;;;-144.47;100.00;61586.06;5022103;28;20504;-80
2022/09/14 04:36:13;;;;;;;2.92;2.30;;;;;;;-144.47;100.00;61586.06;5023796;28;20444;-78
2022/09/14 04:38:40;;;;;;;3.57;2.70;;;;;;;-144.47;100.00;61586.06;5022449;28;20404;-80
2022/09/14 04:41:11;;;;;;;2.55;2.30;;;;;;;-144.47;100.00;61586.06;5024718;28;20390;-79
2022/09/14 04:43:38;;;;;;;4.40;2.30;;;;;;;-144.47;100.00;61586.06;5026799;28;20450;-76
2022/09/14 04:46:06;;;;;;;4.68;2.03;;;;;;;-144.47;100.00;61586.06;5023141;28;20414;-78
2022/09/14 04:48:33;;;;;;;3.30;2.40;;;;;;;-144.47;100.00;61586.06;5002839;28;20477;-77
2022/09/14 04:51:04;;;;;;;3.10;2.30;;;;;;;-144.47;100.00;61586.06;5023984;28;20407;-77
2022/09/14 04:53:29;;;;;;;3.30;2.17;;;;;;;-144.47;100.00;61586.06;5016864;28;20400;-78
2022/09/14 04:56:07;;;;;;;2.90;2.30;;;;;;;-144.47;100.00;61586.06;5023747;28;20517;-78
2022/09/14 04:58:34;;;;;;;3.75;2.40;;;;;;;-144.47;100.00;61586.06;5016730;28;20395;-78
2022/09/14 05:01:03;;;;;;;3.83;2.07;;;;;;;-144.47;100.00;61586.06;5005640;28;20402;-78
2022/09/14 05:03:29;;;;;;;4.82;2.35;;;;;;;-144.47;100.00;61586.06;5016158;28;20411;-76
2022/09/14 05:05:59;;;;;;;3.60;2.17;;;;;;;-144.47;100.00;61586.06;5038469;28;20410;-76
2022/09/14 05:08:25;;;;;;;4.40;2.20;;;;;;;-144.47;100.00;61586.06;5020319;28;20404;-76
2022/09/14 05:10:54;;;;;;;5.00;2.53;;;;;;;-144.47;100.00;61586.06;5004673;28;21289;-76
2022/09/14 05:13:20;;;;;;;2.90;2.17;;;;;;;-144.47;100.00;61586.06;5019441;28;20420;-75
2022/09/14 05:15:45;;;;;;;5.10;2.33;;;;;;;-144.47;100.00;61586.06;5020458;28;20428;-75
2022/09/14 05:18:11;;;;;;;5.10;2.17;;;;;;;-144.47;100.00;61586.06;5035777;28;20491;-77
2022/09/14 05:20:37;;;;;;;5.00;2.53;;;;;;;-144.47;100.00;61586.06;5029259;28;20872;-81
2022/09/14 05:23:02;;;;;;;3.03;2.35;;;;;;;-144.47;100.00;61586.06;5023178;28;20402;-77
2022/09/14 05:25:28;;;;;;;4.00;2.57;;;;;;;-144.47;100.00;61586.06;5026790;28;20407;-76
2022/09/14 05:27:53;;;;;;;3.92;2.35;;;;;;;-144.47;100.00;61586.06;5026709;28;20438;-78
2022/09/14 05:30:19;;;;;;;4.17;2.20;;;;;;;-144.47;100.00;61586.06;5030200;28;20825;-77
2022/09/14 05:32:44;;;;;;;5.50;2.70;;;;;;;-144.47;100.00;61586.06;5020602;28;20479;-77
2022/09/14 05:35:10;;;;;;;4.13;2.40;;;;;;;-144.47;100.00;61586.06;5020869;28;20407;-77
2022/09/14 05:37:35;;;;;;;3.43;2.47;;;;;;;-144.47;100.00;61586.06;5022322;28;20805;-79
2022/09/14 05:40:01;;;;;;;4.03;2.30;;;;;;;-144.47;100.00;61586.06;5021122;28;20426;-77
2022/09/14 05:42:27;;;;;;;3.17;2.30;;;;;;;-144.47;100.00;61586.06;5026004;28;20405;-78
2022/09/14 05:44:52;;;;;;;3.27;2.27;;;;;;;-144.47;100.00;61586.06;5027461;28;20464;-78
2022/09/14 05:47:18;;;;;;;4.80;2.53;;;;;;;-144.47;100.00;61586.06;5027192;28;20776;-78
2022/09/14 05:49:43;;;;;;;3.60;2.50;;;;;;;-144.47;100.00;61586.06;5022882;28;20424;-78
2022/09/14 05:52:09;;;;;;;5.00;2.80;;;;;;;-144.47;100.00;61586.06;5034138;28;20932;-83
2022/09/14 05:54:34;;;;;;;3.78;2.60;;;;;;;-144.47;100.00;61586.06;5034672;28;20394;-81
2022/09/14 05:57:00;;;;;;;3.80;2.40;;;;;;;-144.47;100.00;61586.06;5003571;28;20415;-82
2022/09/14 05:59:25;;;;;;;3.55;2.50;;;;;;;-144.47;100.00;61586.06;5021066;28;20436;-82
2022/09/14 06:01:51;;;;;;;5.67;2.80;;;;;;;-144.47;100.00;61586.06;5020112;28;20435;-82
2022/09/14 06:04:16;;;;;;;4.07;2.50;;;;;;;-144.47;100.00;61586.06;4322299;28;10001604;-82
2022/09/14 06:06:42;;;;;;;4.88;2.78;;;;;;;-144.47;100.00;61586.06;5004110;28;20873;-82
2022/09/14 06:09:07;;;;;;;3.70;2.47;;;;;;;-144.47;100.00;61586.06;5020158;28;20415;-82
2022/09/14 06:11:37;;;;;;;4.28;2.65;;;;;;;-144.47;100.00;61586.06;5022524;28;20398;-80
2022/09/14 06:14:03;;;;;;;4.55;2.38;;;;;;;-144.47;100.00;61586.06;5019945;28;20911;-83
2022/09/14 06:16:28;;;;;;;4.25;2.50;;;;;;;-144.47;100.00;61586.06;5020636;28;20812;-83
2022/09/14 06:18:56;;;;;;;4.53;2.72;;;;;;;-144.47;100.00;61586.06;5022365;28;20456;-83
2022/09/14 06:21:22;;;;;;;6.07;2.70;;;;;;;-144.47;100.00;61586.06;5019799;28;20455;-82
2022/09/14 06:23:48;;;;;;;6.72;2.80;;;;;;;-144.47;100.00;61586.06;5020831;28;20416;-81
2022/09/14 06:26:14;;;;;;;3.08;2.20;;;;;;;-144.47;100.00;61586.06;5020946;28;20417;-83
2022/09/14 06:28:40;;;;;;;3.92;3.10;;;;;;;-144.47;100.00;61586.06;5019630;28;20488;-83
2022/09/14 06:31:08;;;;;;;4.15;2.50;;;;;;;-144.47;100.00;61586.06;5021249;28;20906;-83
2022/09/14 06:33:35;;;;;;;4.75;2.70;;;;;;;-144.47;100.00;61586.06;5018904;28;20449;-83
2022/09/14 06:36:03;;;;;;;6.67;2.57;;;;;;;-144.47;100.00;61586.06;5022330;28;20417;-83
2022/09/14 06:38:29;;;;;;;3.28;2.53;;;;;;;-144.47;100.00;61586.06;5014918;28;20403;-82
2022/09/14 06:40:57;;;;;;;3.90;2.65;;;;;;;-144.47;100.00;61586.06;5021700;28;20406;-82
2022/09/14 06:43:27;;;;;;;3.38;2.67;;;;;;;-144.47;100.00;61586.06;5019232;28;20415;-82
2022/09/14 06:45:59;;;;;;;3.65;2.50;;;;;;;-144.47;100.00;61586.06;5021097;28;20409;-81
2022/09/14 06:48:26;;;;;;;4.63;2.83;;;;;;;-144.47;100.00;61586.06;5018451;28;20416;-83
2022/09/14 06:50:51;;;;;;;5.57;2.88;;;;;;;-144.47;100.00;61586.06;5018191;28;20891;-82
2022/09/14 06:53:17;;;;;;;6.03;2.90;;;;;;;-144.47;100.00;61586.06;5020936;28;20411;-82
2022/09/14 06:55:44;;;;;;;5.20;2.60;;;;;;;-144.47;100.00;61586.06;5000420;28;20464;-81
2022/09/14 06:58:10;;;;;;;4.53;2.83;;;;;;;-144.47;100.00;61586.06;5034903;28;20946;-82
2022/09/14 07:00:35;;;;;;;4.57;2.38;;;;;;;-144.47;100.00;61586.06;5036559;28;20409;-82
2022/09/14 07:03:01;;;;;;;4.33;2.67;;;;;;;-144.47;100.00;61586.06;5024856;28;20395;-79
2022/09/14 07:05:27;;;;;;;4.47;2.55;;;;;;;-144.47;100.00;61586.06;5039183;28;20492;-80
2022/09/14 07:07:52;;;;;;;6.80;2.43;;;;;;;-144.47;100.00;61586.06;5019230;28;20418;-80
2022/09/14 07:10:18;;;;;;;4.45;2.28;;;;;;;-144.47;100.00;61586.06;5040532;28;20462;-80
2022/09/14 07:12:44;;;;;;;5.55;2.30;;;;;;;-144.47;100.00;61586.06;5029601;28;20493;-79
2022/09/14 07:15:10;;;;;;;3.67;2.33;;;;;;;-144.47;100.00;61586.06;5026201;28;20493;-79
2022/09/14 07:17:35;;;;;;;5.63;2.75;;;;;;;-144.47;100.00;61586.06;5029807;28;20412;-78
2022/09/14 07:20:06;;;;;;;5.93;2.80;;;;;;;-144.47;100.00;61586.06;5027211;28;20421;-77
2022/09/14 07:22:34;;;;;;;4.03;2.60;;;;;;;-144.47;100.00;61586.06;5028058;28;20410;-80
2022/09/14 07:25:00;;;;;;;5.35;2.83;;;;;;;-144.47;100.00;61586.06;5027434;28;20398;-80
2022/09/14 07:27:26;;;;;;;5.13;3.10;;;;;;;-144.47;100.00;61586.06;5029516;28;20971;-81
2022/09/14 07:29:52;;;;;;;7.03;3.30;;;;;;;-144.47;100.00;61586.06;5027346;28;20445;-81
2022/09/14 07:32:18;;;;;;;6.25;3.63;;;;;;;-144.47;100.00;61586.06;5027435;28;20498;-82
2022/09/14 07:34:43;;;;;;;6.37;3.43;;;;;;;-144.47;100.00;61586.06;5042345;28;20478;-81
2022/09/14 07:37:09;;;;;;;6.40;3.65;;;;;;;-144.47;100.00;61586.06;5030127;28;20822;-84
2022/09/14 07:39:35;;;;;;;8.13;4.00;;;;;;;-144.47;100.00;61586.06;5029646;28;20476;-84
2022/09/14 07:42:01;;;;;;;7.70;4.57;;;;;;;-144.47;100.00;61586.06;5029914;28;20473;-83
2022/09/14 07:44:26;;;;;;;7.90;4.40;;;;;;;-144.47;100.00;61586.06;5032616;28;20493;-83
2022/09/14 07:46:52;;;;;;;7.17;4.10;;;;;;;-144.47;100.00;61586.06;5027192;28;20404;-84
2022/09/14 07:49:17;;;;;;;7.15;4.47;;;;;;;-144.47;100.00;61586.06;5024676;28;20426;-85
2022/09/14 07:51:44;;;;;;;7.20;4.63;;;;;;;-144.47;100.00;61586.06;5024799;28;20414;-83
2022/09/14 07:54:12;;;;;;;6.32;4.07;;;;;;;-144.47;100.00;61586.06;5019228;28;20408;-83
2022/09/14 07:56:38;;;;;;;6.22;4.03;;;;;;;-144.47;100.00;61586.06;5016361;28;20781;-85
2022/09/14 07:59:04;;;;;;;5.40;3.92;;;;;;;-144.47;100.00;61586.06;5015203;28;20490;-84
2022/09/14 08:01:30;;;;;;;8.50;4.63;;;;;;;-144.47;100.00;61586.06;5023495;28;20497;-84
2022/09/14 08:04:01;;;;;;;7.73;4.67;;;;;;;-144.47;100.00;61586.06;5032452;28;20468;-84
2022/09/14 08:06:27;;;;;;;5.95;4.43;;;;;;;-144.47;100.00;61586.06;5034836;28;20405;-82
2022/09/14 08:08:54;;;;;;;7.20;4.68;;;;;;;-144.47;100.00;61586.06;5026449;28;21166;-82
2022/09/14 08:11:31;;;;;;;8.63;5.00;;;;;;;-144.47;100.00;61586.06;5028695;28;20404;-80
2022/09/14 08:13:59;;;;;;;5.97;4.68;;;;;;;-144.47;100.00;61586.06;5019208;28;20402;-81
2022/09/14 08:16:26;;;;;;;9.38;5.15;;;;;;;-144.47;100.00;61586.06;5018762;28;20406;-82
2022/09/14 08:18:57;;;;;;;8.43;5.25;;;;;;;-144.47;100.00;61586.06;5019256;28;20434;-81
2022/09/14 08:21:24;;;;;;;8.45;6.25;;;;;;;-144.47;100.00;61586.06;5018487;28;20493;-82
2022/09/14 08:23:49;;;;;;;8.25;5.75;;;;;;;-144.47;100.00;61586.06;5019071;28;20429;-82
2022/09/14 08:26:17;;;;;;;8.48;6.70;;;;;;;-144.47;100.00;61586.06;5018664;28;20396;-82
2022/09/14 08:28:43;;;;;;;11.98;8.18;;;;;;;-144.47;100.00;61586.06;4999709;28;20759;-82
2022/09/14 08:31:20;;;;;;;12.73;8.82;;;;;;;-144.47;100.00;61586.06;5019095;28;20416;-81
2022/09/14 08:33:48;;;;;;;10.70;8.47;;;;;;;-144.47;100.00;61586.06;5018647;28;20400;-81
2022/09/14 08:36:17;;;;;;;11.13;7.73;;;;;;;-144.47;100.00;61586.06;5018240;28;20486;-82
2022/09/14 08:38:43;;;;;;;9.60;7.13;;;;;;;-144.47;100.00;61586.06;5017465;28;20487;-81
2022/09/14 08:41:34;;;;;;;10.47;7.63;;;;;;;-144.47;100.00;61586.06;5017392;28;20563;-80
2022/09/14 08:44:08;;;;;;;12.43;8.45;;;;;;;-144.47;100.00;61586.06;5015682;28;21072;-81
2022/09/14 08:46:38;;;;;;;9.45;7.43;;;;;;;-144.47;100.00;61586.06;5010832;28;20406;-80
2022/09/14 08:49:20;;;;;;;8.27;6.35;;;;;;;-144.47;100.00;61586.06;5014417;28;20431;-78
2022/09/14 08:51:47;;;;;;;9.60;6.75;;;;;;;-144.47;100.00;61586.06;5017234;28;20881;-78
2022/09/14 08:54:13;;;;;;;10.48;6.47;;;;;;;-144.47;100.00;61586.06;5016835;28;20403;-77
2022/09/14 08:56:45;;;;;;;9.43;6.87;;;;;;;-144.47;100.00;61586.06;5017505;28;20470;-79
2022/09/14 08:59:49;;;;;;;7.57;6.40;;;;;;;-144.47;100.00;61586.06;5016255;28;20419;-78
2022/09/14 09:02:31;;;;;;;8.40;5.83;;;;;;;-144.47;100.00;61586.06;5014214;28;20412;-80
2022/09/14 09:05:19;;;;;;;7.00;6.30;;;;;;;-144.47;100.00;61586.06;5017397;28;20421;-79
2022/09/14 09:08:04;;;;;;;10.02;6.00;;;;;;;-144.47;100.00;61586.06;5017278;28;20507;-79
2022/09/14 09:10:32;;;;;;;9.13;6.20;;;;;;;-144.47;100.00;61586.06;4664829;28;10000896;-80
2022/09/14 09:13:00;;;;;;;7.57;6.27;;;;;;;-144.47;100.00;61586.06;5012751;28;20533;-80
2022/09/14 09:15:35;;;;;;;8.10;6.10;;;;;;;-144.47;100.00;61586.06;5018200;28;20438;-80
2022/09/14 09:18:12;;;;;;;10.10;6.32;;;;;;;-144.47;100.00;61586.06;5018917;28;20881;-81
2022/09/14 09:20:49;;;;;;;10.77;6.87;;;;;;;-144.47;100.00;61586.06;5015715;28;20408;-81
2022/09/14 09:23:19;;;;;;;8.20;6.03;;;;;;;-144.47;100.00;61586.06;5020051;28;20755;-79
2022/09/14 09:26:06;;;;;;;10.85;6.82;;;;;;;-144.47;100.00;61586.06;5020287;28;20460;-79
2022/09/14 09:28:33;;;;;;;9.80;6.87;;;;;;;-144.47;100.00;61586.06;5015088;28;20908;-80
2022/09/14 09:31:05;;;;;;;8.25;6.05;;;;;;;-144.47;100.00;61586.06;5018482;28;20447;-80
2022/09/14 09:33:51;;;;;;;9.73;6.25;;;;;;;-144.47;100.00;61586.06;5007828;28;20520;-77
2022/09/14 09:36:20;;;;;;;8.82;6.38;;;;;;;-144.47;100.00;61586.06;5016313;28;20406;-76
2022/09/14 09:38:45;;;;;;;7.97;7.18;;;;;;;-144.47;100.00;61586.06;5015571;28;20455;-79
2022/09/14 09:41:39;;;;;;;10.90;7.00;;;;;;;-144.47;100.00;61586.06;4994914;28;20424;-77
2022/09/14 09:44:08;;;;;;;8.90;6.13;;;;;;;-144.47;100.00;61586.06;5026521;28;20445;-77
2022/09/14 09:46:37;;;;;;;8.27;5.75;;;;;;;-144.47;100.00;61586.06;4974905;28;20882;-77
2022/09/14 09:49:18;;;;;;;9.38;5.70;;;;;;;-144.47;100.00;61586.06;4972198;28;20423;-77
2022/09/14 09:51:44;;;;;;;7.60;5.30;;;;;;;-144.47;100.00;61586.06;4631006;28;10001091;-78
2022/09/14 09:54:12;;;;;;;6.67;5.03;;;;;;;-144.47;100.00;61586.06;4976530;28;21016;-75
2022/09/14 09:57:01;;;;;;;9.33;4.97;;;;;;;-144.47;100.00;61586.06;4977267;28;20421;-78
2022/09/14 09:59:28;;;;;;;4.82;4.28;;;;;;;-144.47;100.00;61586.06;4973925;28;20436;-75
2022/09/14 10:01:55;;;;;;;5.03;3.80;;;;;;;-144.47;100.00;61586.06;4976702;28;20893;-80
2022/09/14 10:04:26;;;;;;;5.72;4.30;;;;;;;-144.47;100.00;61586.06;4981860;28;20806;-79
2022/09/14 10:06:53;;;;;;;5.82;4.20;;;;;;;-144.47;100.00;61586.06;4975568;28;20425;-84
2022/09/14 10:09:28;;;;;;;6.60;4.22;;;;;;;-144.47;100.00;61586.06;4974914;28;20425;-80
2022/09/14 10:12:01;;;;;;;6.65;4.63;;;;;;;-144.47;100.00;61586.06;4979040;28;20414;-80
2022/09/14 10:14:33;;;;;;;7.75;4.55;;;;;;;-144.47;100.00;61586.06;4985648;28;20958;-80
2022/09/14 10:17:06;;;;;;;7.18;4.20;;;;;;;-144.47;100.00;61586.06;4970813;28;20409;-81
2022/09/14 10:19:32;;;;;;;5.45;3.95;;;;;;;-144.47;100.00;61586.06;4990916;28;20502;-80
2022/09/14 10:22:17;;;;;;;5.38;4.05;;;;;;;-144.47;100.00;61586.06;5011743;28;20922;-79
2022/09/14 10:24:55;;;;;;;5.85;4.40;;;;;;;-144.47;100.00;61586.06;4975541;28;20766;-80
2022/09/14 10:27:40;;;;;;;7.40;3.92;;;;;;;-144.47;100.00;61586.06;4982650;28;20496;-80
2022/09/14 10:30:13;;;;;;;6.47;3.38;;;;;;;-144.47;100.00;61586.06;4974933;28;20427;-81
2022/09/14 10:32:42;;;;;;;7.50;3.60;;;;;;;-144.47;100.00;61586.06;4982498;28;20420;-81
2022/09/14 10:35:12;;;;;;;4.30;3.30;;;;;;;-144.47;100.00;61586.06;4979767;28;20447;-80
2022/09/14 10:37:56;;;;;;;4.85;3.40;;;;;;;-144.47;100.00;61586.06;4980090;28;20420;-81
2022/09/14 10:40:38;;;;;;;5.00;3.08;;;;;;;-144.47;100.00;61586.06;4980775;28;20438;-81
2022/09/14 10:43:15;;;;;;;5.85;2.92;;;;;;;-144.47;100.00;61586.06;4978979;28;20424;-81
2022/09/14 10:45:49;;;;;;;5.50;2.60;;;;;;;-144.47;100.00;61586.06;5012518;28;20841;-81
2022/09/14 10:48:36;;;;;;;4.68;2.53;;;;;;;-144.47;100.00;61586.06;5017019;28;20402;-82
2022/09/14 10:51:11;;;;;;;4.85;2.70;;;;;;;-144.47;100.00;61586.06;5014570;28;20405;-80
2022/09/14 10:54:19;;;;;;;4.10;2.55;;;;;;;-144.47;100.00;61586.06;5017045;28;20784;-80
2022/09/14 10:57:03;;;;;;;2.67;1.90;;;;;;;-144.47;100.00;61586.06;4997975;28;20458;-79
2022/09/14 10:59:58;;;;;;;3.15;1.95;;;;;;;-144.47;100.00;61586.06;4996412;28;20414;-81
2022/09/14 11:02:46;;;;;;;5.03;2.42;;;;;;;-144.47;100.00;61586.06;4998017;28;21014;-76
2022/09/14 11:05:26;;;;;;;2.92;2.10;;;;;;;-144.47;100.00;61586.06;4997556;28;20476;-78
2022/09/14 11:08:13;;;;;;;2.47;2.00;;;;;;;-144.47;100.00;61586.06;4996562;28;20418;-77
2022/09/14 11:11:03;;;;;;;3.63;2.13;;;;;;;-144.47;100.00;61586.06;4995900;28;20499;-78
2022/09/14 11:13:40;;;;;;;;;;;;;;;-144.47;100.00;61586.06;4996039;28;20034;-79
2022/09/14 11:16:29;;;;;;;;;;;;;;;-144.47;100.00;61586.06;4985556;28;19994;-77
2022/09/14 11:19:24;;;;;;;;;;;;;;;-144.47;100.00;61586.06;5004533;28;20492;-78
2022/09/14 11:21:52;;;;;;;;;;;;;;;-144.47;100.00;61586.06;5002344;28;19928;-78
2022/09/14 11:24:36;;;;;;;;;;;;;;;-144.47;100.00;61586.06;5002699;28;19960;-78
2022/09/14 11:27:10;;;;;;;;;;;;;;;-144.47;100.00;61586.06;5007923;28;19917;-77
2022/09/14 11:29:45;;;;;;;;;;;;;;;-144.47;100.00;61586.06;4320828;28;10000805;-77